Terminal Aerodrome Forecast
Issued by NWS Brownsville, TX

Home | Current Version | Previous Version | Text Only | Print | Product List | Glossary On
Versions: 1 2 3 4 5 6 7 8 9 10 11 12 13 14 15 16
674
FTUS44 KBRO 261729
TAFMFE
TAF
KMFE 261729Z 2618/2718 10008KT P6SM SCT050
     FM262000 10012KT P6SM SCT050
     FM270400 VRB04KT P6SM FEW020=

USA.gov is the U.S. government's official web portal to all federal, state and local government web resources and services.